Time;durP1;ratioP1;P1;durP2;ratioP2;P2;SDS_P1;SDS_P2;PMS_P1;PMS_P2;Temp;Humidity;BMP_temperature;BMP_pressure;BME280_temperature;BME280_humidity;BME280_pressure;Samples;Min_cycle;Max_cycle;Signal;HPM_P1;HPM_P2
2021/03/29 00:00:17;;;;;;;66.18;6.63;;;6.30;1.00;;;;;;5095040;28;20294;-65
2021/03/29 00:02:44;;;;;;;61.83;5.78;;;6.30;1.00;;;;;;5095176;28;20246;-65
2021/03/29 00:05:12;;;;;;;63.28;6.85;;;6.20;1.00;;;;;;5095238;28;20293;-65
2021/03/29 00:07:40;;;;;;;62.00;6.03;;;6.20;1.00;;;;;;5095122;28;20666;-66
2021/03/29 00:10:09;;;;;;;60.88;5.70;;;6.20;1.00;;;;;;5095107;28;20249;-65
2021/03/29 00:12:36;;;;;;;59.97;6.93;;;6.20;1.00;;;;;;5094855;28;20211;-65
2021/03/29 00:15:06;;;;;;;61.58;6.95;;;6.10;1.00;;;;;;5094948;28;20299;-65
2021/03/29 00:17:33;;;;;;;59.75;5.80;;;6.10;1.00;;;;;;5094967;28;20665;-66
2021/03/29 00:19:59;;;;;;;59.85;6.07;;;6.10;1.00;;;;;;5094771;28;20748;-65
2021/03/29 00:22:26;;;;;;;62.45;5.70;;;6.10;1.00;;;;;;5094637;28;20204;-65
2021/03/29 00:24:53;;;;;;;60.42;5.82;;;6.10;1.00;;;;;;5094628;28;20585;-65
2021/03/29 00:27:20;;;;;;;63.45;5.93;;;6.00;1.00;;;;;;5094573;28;20283;-65
2021/03/29 00:29:46;;;;;;;61.30;5.95;;;6.00;1.00;;;;;;5094780;28;20236;-65
2021/03/29 00:32:14;;;;;;;61.50;6.45;;;6.00;1.00;;;;;;5094616;28;20281;-66
2021/03/29 00:34:41;;;;;;;63.22;6.18;;;6.00;1.00;;;;;;5094520;28;20242;-65
2021/03/29 00:37:08;;;;;;;61.92;5.32;;;6.00;1.00;;;;;;5094366;28;20220;-65
2021/03/29 00:39:36;;;;;;;65.28;6.13;;;6.00;1.00;;;;;;5094360;28;20253;-65
2021/03/29 00:42:05;;;;;;;61.60;5.65;;;6.00;1.00;;;;;;5089190;28;20223;-65
2021/03/29 00:44:32;;;;;;;62.38;5.80;;;6.00;1.00;;;;;;5094097;28;20740;-65
2021/03/29 00:46:59;;;;;;;61.08;5.80;;;6.00;1.00;;;;;;5093976;28;20240;-65
2021/03/29 00:49:26;;;;;;;64.65;6.47;;;6.00;1.00;;;;;;5094182;28;20299;-65
2021/03/29 00:51:53;;;;;;;59.38;5.35;;;6.00;1.00;;;;;;5094061;28;20221;-65
2021/03/29 00:54:19;;;;;;;60.53;5.97;;;6.00;1.00;;;;;;5094019;28;20288;-65
2021/03/29 00:56:46;;;;;;;61.70;5.63;;;6.00;1.00;;;;;;5093896;28;20224;-66
2021/03/29 00:59:13;;;;;;;61.72;5.40;;;6.00;1.00;;;;;;5094132;28;20314;-66
2021/03/29 01:01:44;;;;;;;60.63;6.07;;;6.00;1.00;;;;;;5094171;28;20645;-65
2021/03/29 01:04:10;;;;;;;59.92;5.07;;;6.00;1.00;;;;;;5093927;28;20672;-65
2021/03/29 01:06:41;;;;;;;61.75;5.30;;;6.00;1.00;;;;;;5093894;28;20202;-65
2021/03/29 01:09:10;;;;;;;60.80;5.60;;;6.00;1.00;;;;;;5093797;28;20286;-65
2021/03/29 01:11:41;;;;;;;64.40;6.38;;;6.00;1.00;;;;;;5093842;28;20215;-65
2021/03/29 01:14:11;;;;;;;60.65;5.93;;;5.90;1.00;;;;;;5093607;28;20208;-66
2021/03/29 01:16:41;;;;;;;61.20;6.15;;;5.90;1.00;;;;;;5093763;28;20225;-65
2021/03/29 01:19:15;;;;;;;62.65;5.20;;;5.90;1.00;;;;;;5093959;28;20228;-65
2021/03/29 01:21:57;;;;;;;59.95;5.10;;;5.90;1.00;;;;;;5093728;28;20204;-66
2021/03/29 01:24:31;;;;;;;62.72;5.80;;;5.90;1.00;;;;;;5093697;28;20206;-65
2021/03/29 01:26:58;;;;;;;62.55;6.47;;;5.80;1.00;;;;;;5093701;28;20289;-66
2021/03/29 01:29:31;;;;;;;62.72;7.00;;;5.80;1.00;;;;;;5091164;28;20306;-65
2021/03/29 01:32:00;;;;;;;65.65;5.90;;;5.80;1.00;;;;;;5093171;28;20204;-65
2021/03/29 01:34:29;;;;;;;59.63;5.78;;;5.80;1.00;;;;;;5093049;28;20238;-65
2021/03/29 01:36:57;;;;;;;62.70;6.20;;;5.80;1.00;;;;;;5092963;28;20220;-65
2021/03/29 01:39:24;;;;;;;65.05;5.90;;;5.70;1.00;;;;;;5093217;28;20228;-66
2021/03/29 01:41:52;;;;;;;62.60;6.05;;;5.70;1.00;;;;;;5092996;28;20300;-65
2021/03/29 01:44:20;;;;;;;61.50;5.88;;;5.70;1.00;;;;;;5092920;28;20238;-65
2021/03/29 01:46:47;;;;;;;59.15;5.15;;;5.70;1.00;;;;;;5093464;28;20200;-65
2021/03/29 01:49:14;;;;;;;60.03;5.60;;;5.60;1.00;;;;;;5092989;28;20305;-65
2021/03/29 01:51:41;;;;;;;60.63;5.57;;;5.60;1.00;;;;;;5092685;28;20885;-65
2021/03/29 01:54:08;;;;;;;62.40;6.53;;;5.50;1.00;;;;;;5092405;28;20343;-65
2021/03/29 01:56:35;;;;;;;65.97;6.32;;;5.50;1.00;;;;;;5092804;28;20264;-65
2021/03/29 01:59:01;;;;;;;59.00;5.40;;;5.50;1.00;;;;;;5092505;28;20315;-65
2021/03/29 02:01:28;;;;;;;60.00;5.78;;;5.40;1.00;;;;;;5093129;28;20239;-65
2021/03/29 02:03:55;;;;;;;59.50;5.65;;;5.40;1.00;;;;;;5092841;28;20252;-65
2021/03/29 02:06:22;;;;;;;62.70;6.30;;;5.30;1.00;;;;;;5092779;28;20235;-65
2021/03/29 02:08:50;;;;;;;62.38;6.18;;;5.30;1.00;;;;;;5093022;28;20252;-65
2021/03/29 02:11:18;;;;;;;61.83;5.90;;;5.20;1.00;;;;;;5092706;28;20625;-65
2021/03/29 02:13:48;;;;;;;61.50;5.78;;;5.20;1.00;;;;;;5092350;28;20633;-65
2021/03/29 02:16:16;;;;;;;59.50;5.70;;;5.20;1.00;;;;;;5092824;28;20336;-65
2021/03/29 02:18:46;;;;;;;60.28;6.15;;;5.20;1.00;;;;;;5092575;28;20272;-65
2021/03/29 02:21:16;;;;;;;66.35;6.38;;;5.10;1.00;;;;;;5092435;28;20204;-65
2021/03/29 02:23:48;;;;;;;58.55;5.85;;;5.10;1.00;;;;;;5092348;28;20299;-65
2021/03/29 02:26:18;;;;;;;60.25;5.60;;;5.10;1.00;;;;;;5092186;28;20201;-65
2021/03/29 02:28:46;;;;;;;61.05;6.13;;;5.10;1.00;;;;;;5092447;28;20224;-65
2021/03/29 02:31:13;;;;;;;58.10;5.07;;;5.00;1.00;;;;;;5092571;28;20299;-65
2021/03/29 02:33:41;;;;;;;62.70;5.82;;;5.00;1.00;;;;;;5092080;28;20723;-65
2021/03/29 02:36:09;;;;;;;64.45;6.30;;;5.00;1.00;;;;;;5083036;28;20228;-65
2021/03/29 02:38:36;;;;;;;60.70;6.47;;;5.00;1.00;;;;;;5090933;28;20246;-65
2021/03/29 02:41:04;;;;;;;62.63;6.53;;;4.90;1.00;;;;;;5092316;28;20601;-65
2021/03/29 02:43:31;;;;;;;60.13;5.55;;;4.90;1.00;;;;;;5088282;28;20725;-65
2021/03/29 02:46:01;;;;;;;60.75;5.03;;;5.00;1.00;;;;;;5091781;28;20214;-65
2021/03/29 02:48:30;;;;;;;60.67;5.43;;;4.90;1.00;;;;;;5091634;28;20780;-65
2021/03/29 02:50:58;;;;;;;58.67;5.30;;;4.90;1.00;;;;;;5083879;28;20626;-65
2021/03/29 02:53:27;;;;;;;63.00;6.40;;;4.90;1.00;;;;;;5092036;28;20207;-65
2021/03/29 02:55:56;;;;;;;61.75;5.35;;;4.90;1.00;;;;;;5091923;28;20226;-65
2021/03/29 02:58:25;;;;;;;61.22;5.30;;;4.90;1.00;;;;;;5092122;28;20224;-65
2021/03/29 03:00:53;;;;;;;62.17;5.57;;;4.80;1.00;;;;;;5091863;28;20231;-65
2021/03/29 03:03:19;;;;;;;61.30;5.57;;;4.80;1.00;;;;;;5091699;28;20685;-65
2021/03/29 03:05:46;;;;;;;59.72;5.07;;;4.80;1.00;;;;;;5091628;28;20200;-65
2021/03/29 03:08:13;;;;;;;60.45;5.50;;;4.80;1.00;;;;;;5091553;28;20230;-65
2021/03/29 03:10:40;;;;;;;60.72;6.13;;;4.80;1.00;;;;;;5091902;28;20644;-65
2021/03/29 03:13:09;;;;;;;60.00;5.38;;;4.70;1.00;;;;;;5091696;28;20215;-65
2021/03/29 03:15:36;;;;;;;68.07;5.72;;;4.70;1.00;;;;;;5091354;28;20207;-65
2021/03/29 03:18:04;;;;;;;59.42;5.15;;;4.70;1.00;;;;;;5091547;28;20277;-65
2021/03/29 03:20:32;;;;;;;63.33;5.50;;;4.60;1.00;;;;;;5091816;28;20718;-65
2021/03/29 03:23:00;;;;;;;60.05;5.55;;;4.60;1.00;;;;;;5091799;28;20299;-65
2021/03/29 03:25:28;;;;;;;60.33;5.78;;;4.60;1.00;;;;;;5091667;28;20203;-65
2021/03/29 03:27:58;;;;;;;59.55;5.40;;;4.50;1.00;;;;;;5091490;28;20735;-65
2021/03/29 03:30:27;;;;;;;63.60;5.53;;;4.50;1.00;;;;;;5085313;28;20288;-65
2021/03/29 03:32:54;;;;;;;59.97;6.15;;;4.50;1.00;;;;;;5090125;28;20211;-65
2021/03/29 03:35:23;;;;;;;64.97;5.60;;;4.50;1.00;;;;;;5091586;28;20637;-65
2021/03/29 03:37:54;;;;;;;63.55;5.50;;;4.50;1.00;;;;;;5091338;28;20314;-65
2021/03/29 03:40:22;;;;;;;59.65;5.50;;;4.50;1.00;;;;;;5091250;28;20208;-65
2021/03/29 03:42:51;;;;;;;60.22;5.38;;;4.50;1.00;;;;;;5091119;28;20287;-65
2021/03/29 03:45:22;;;;;;;61.03;5.88;;;4.50;1.00;;;;;;5091811;28;20627;-65
2021/03/29 03:47:49;;;;;;;60.90;5.72;;;4.40;1.00;;;;;;5091466;28;20790;-66
2021/03/29 03:50:16;;;;;;;66.00;5.70;;;4.40;1.00;;;;;;5091401;28;20200;-65
2021/03/29 03:52:43;;;;;;;60.65;4.90;;;4.40;1.00;;;;;;5091331;28;20254;-65
2021/03/29 03:55:11;;;;;;;64.55;5.80;;;4.30;1.00;;;;;;5091417;28;20654;-65
2021/03/29 03:57:38;;;;;;;63.85;5.40;;;4.30;1.00;;;;;;5091193;28;20317;-65
2021/03/29 04:00:11;;;;;;;61.13;5.68;;;4.20;1.00;;;;;;5091269;28;20934;-65
2021/03/29 04:02:38;;;;;;;60.08;5.95;;;4.20;1.00;;;;;;5091397;28;20768;-65
2021/03/29 04:05:05;;;;;;;59.22;4.80;;;4.20;1.00;;;;;;5091436;28;20215;-65
2021/03/29 04:07:32;;;;;;;61.03;5.65;;;4.10;1.00;;;;;;5091265;28;20235;-65
2021/03/29 04:10:03;;;;;;;57.40;4.65;;;4.20;1.00;;;;;;5091114;28;20238;-65
2021/03/29 04:12:29;;;;;;;62.58;5.60;;;4.10;1.00;;;;;;5091028;28;20299;-65
2021/03/29 04:14:55;;;;;;;61.65;4.97;;;4.10;1.00;;;;;;5091237;28;20294;-65
2021/03/29 04:17:22;;;;;;;60.78;5.32;;;4.10;1.00;;;;;;5094573;28;20334;-65
2021/03/29 04:19:49;;;;;;;59.67;5.45;;;4.20;1.00;;;;;;5094854;28;20210;-65
2021/03/29 04:22:15;;;;;;;59.97;5.50;;;4.20;1.00;;;;;;5094694;28;20210;-65
2021/03/29 04:24:42;;;;;;;63.90;6.78;;;4.30;1.00;;;;;;5094703;28;20240;-65
2021/03/29 04:27:08;;;;;;;59.10;5.10;;;4.30;1.00;;;;;;5094169;28;20201;-65
2021/03/29 04:29:34;;;;;;;61.05;5.60;;;4.40;1.00;;;;;;5094745;28;20207;-65
2021/03/29 04:32:01;;;;;;;61.95;6.63;;;4.40;1.00;;;;;;5094608;28;20315;-65
2021/03/29 04:34:27;;;;;;;60.78;5.82;;;4.40;1.00;;;;;;5094585;28;20596;-65
2021/03/29 04:36:55;;;;;;;63.08;5.85;;;4.40;1.00;;;;;;5094364;28;20334;-65
2021/03/29 04:39:22;;;;;;;59.05;5.15;;;4.50;1.00;;;;;;5094095;28;20716;-65
2021/03/29 04:41:48;;;;;;;60.50;5.30;;;4.50;1.00;;;;;;5094528;28;20257;-65
2021/03/29 04:44:14;;;;;;;60.20;6.13;;;4.50;1.00;;;;;;5090839;28;20203;-65
2021/03/29 04:46:41;;;;;;;62.00;5.22;;;4.40;1.00;;;;;;5094119;28;20232;-66
2021/03/29 04:49:07;;;;;;;60.75;6.07;;;4.40;1.00;;;;;;5094079;28;20299;-66
2021/03/29 04:51:33;;;;;;;61.30;5.78;;;4.40;1.00;;;;;;5094180;28;20269;-66
2021/03/29 04:54:00;;;;;;;61.92;5.45;;;4.40;1.00;;;;;;5093737;28;20294;-66
2021/03/29 04:56:27;;;;;;;63.03;5.60;;;4.40;1.00;;;;;;5094242;28;20219;-66
2021/03/29 04:58:53;;;;;;;62.65;6.43;;;4.40;1.00;;;;;;5094066;28;20745;-66
2021/03/29 05:01:19;;;;;;;59.95;5.68;;;4.40;1.00;;;;;;5094159;28;20298;-66
2021/03/29 05:03:46;;;;;;;60.00;5.97;;;4.40;1.00;;;;;;5092475;28;20291;-66
2021/03/29 05:06:12;;;;;;;64.80;5.90;;;4.50;1.00;;;;;;5091354;28;20299;-66
2021/03/29 05:08:38;;;;;;;62.85;6.38;;;4.50;1.00;;;;;;5093463;28;20874;-66
2021/03/29 05:11:08;;;;;;;60.05;5.70;;;4.50;1.00;;;;;;5093591;28;20211;-66
2021/03/29 05:13:34;;;;;;;60.20;6.40;;;4.60;1.00;;;;;;5093846;28;20250;-66
2021/03/29 05:16:00;;;;;;;61.95;6.30;;;4.60;1.00;;;;;;5093847;28;20243;-66
2021/03/29 05:18:27;;;;;;;63.03;6.75;;;4.60;1.00;;;;;;5093481;28;20307;-66
2021/03/29 05:20:54;;;;;;;61.53;6.18;;;4.60;1.00;;;;;;5093595;28;20228;-66
2021/03/29 05:23:21;;;;;;;62.67;6.35;;;4.70;1.00;;;;;;5090213;28;20211;-66
2021/03/29 05:25:47;;;;;;;62.15;6.10;;;4.70;1.00;;;;;;5091258;28;20204;-66
2021/03/29 05:28:14;;;;;;;58.85;5.85;;;4.80;1.00;;;;;;5092246;28;20250;-66
2021/03/29 05:30:41;;;;;;;63.10;6.50;;;4.80;1.00;;;;;;5088191;28;20208;-66
2021/03/29 05:33:07;;;;;;;60.05;6.07;;;4.80;1.00;;;;;;5093228;28;20684;-66
2021/03/29 05:35:33;;;;;;;66.90;6.30;;;4.90;1.00;;;;;;5092926;28;20246;-66
2021/03/29 05:38:00;;;;;;;63.15;6.82;;;4.90;1.00;;;;;;5093025;28;20235;-66
2021/03/29 05:40:26;;;;;;;66.80;7.05;;;5.00;1.00;;;;;;5093306;28;20256;-66
2021/03/29 05:42:54;;;;;;;64.30;6.30;;;5.10;1.00;;;;;;5092918;28;20744;-64
2021/03/29 05:45:22;;;;;;;63.30;6.10;;;5.10;1.00;;;;;;5093197;28;20201;-64
2021/03/29 05:47:49;;;;;;;64.40;7.07;;;5.20;1.00;;;;;;5093181;28;20247;-64
2021/03/29 05:50:17;;;;;;;62.75;6.80;;;5.20;1.00;;;;;;5092998;28;20670;-65
2021/03/29 05:52:44;;;;;;;61.35;6.65;;;5.20;1.00;;;;;;5092733;28;20208;-65
2021/03/29 05:55:14;;;;;;;62.28;6.05;;;5.20;1.00;;;;;;5093198;28;20226;-66
2021/03/29 05:57:53;;;;;;;63.50;6.15;;;5.30;1.00;;;;;;5092906;28;20224;-66
2021/03/29 06:00:35;;;;;;;66.43;7.57;;;5.30;1.00;;;;;;5092817;28;20203;-65
2021/03/29 06:03:20;;;;;;;60.80;6.20;;;5.30;1.00;;;;;;5093294;28;20295;-66
2021/03/29 06:05:47;;;;;;;59.03;5.50;;;5.40;1.00;;;;;;5093197;28;20607;-66
2021/03/29 06:08:14;;;;;;;61.53;6.25;;;5.40;1.00;;;;;;5092567;28;20234;-66
2021/03/29 06:10:40;;;;;;;62.80;5.72;;;5.50;1.00;;;;;;5092738;28;20273;-66
2021/03/29 06:13:15;;;;;;;60.05;5.50;;;5.40;1.00;;;;;;5092500;28;20637;-66
2021/03/29 06:15:42;;;;;;;61.05;5.70;;;5.50;1.00;;;;;;5092963;28;20216;-66
2021/03/29 06:18:13;;;;;;;60.05;5.88;;;5.50;1.00;;;;;;5087986;28;20221;-66
2021/03/29 06:21:03;;;;;;;62.85;6.28;;;5.50;1.00;;;;;;5089682;28;20232;-66
2021/03/29 06:23:30;;;;;;;60.00;5.72;;;5.60;1.00;;;;;;5087298;28;20283;-66
2021/03/29 06:26:16;;;;;;;63.08;6.70;;;5.70;1.00;;;;;;5092342;28;20342;-66
2021/03/29 06:28:42;;;;;;;64.97;6.78;;;5.80;1.00;;;;;;5092338;28;20311;-65
2021/03/29 06:31:22;;;;;;;61.40;5.75;;;5.90;1.00;;;;;;5092369;28;20287;-66
2021/03/29 06:33:49;;;;;;;59.92;5.70;;;6.20;1.00;;;;;;5091915;28;20209;-66
2021/03/29 06:36:26;;;;;;;65.85;6.28;;;6.30;1.00;;;;;;5091977;28;20776;-66
2021/03/29 06:38:52;;;;;;;62.83;5.53;;;6.50;1.00;;;;;;5091936;28;20280;-66
2021/03/29 06:41:25;;;;;;;62.20;6.88;;;6.70;1.00;;;;;;5091501;28;20219;-66
2021/03/29 06:43:52;;;;;;;59.80;5.63;;;6.90;1.00;;;;;;5078836;28;20220;-66
2021/03/29 06:46:24;;;;;;;63.70;7.32;;;7.10;1.00;;;;;;5091882;28;20239;-66
2021/03/29 06:48:51;;;;;;;63.10;6.43;;;7.30;1.00;;;;;;5087230;28;20268;-66
2021/03/29 06:51:19;;;;;;;65.40;6.03;;;7.40;1.00;;;;;;5091832;28;20274;-65
2021/03/29 06:53:51;;;;;;;58.88;5.32;;;7.50;1.00;;;;;;5091819;28;20452;-66
2021/03/29 06:56:36;;;;;;;61.23;6.20;;;7.60;1.00;;;;;;5091882;28;20316;-66
2021/03/29 06:59:15;;;;;;;59.38;5.72;;;7.70;1.00;;;;;;5087494;28;21085;-66
2021/03/29 07:01:50;;;;;;;60.60;5.75;;;7.80;1.00;;;;;;5091703;28;20407;-65
2021/03/29 07:04:20;;;;;;;60.55;5.63;;;7.80;1.00;;;;;;5085927;28;20640;-65
2021/03/29 07:06:47;;;;;;;59.35;5.07;;;7.80;1.00;;;;;;5091747;28;20214;-65
2021/03/29 07:09:14;;;;;;;63.75;5.18;;;7.80;1.00;;;;;;5091347;28;20230;-65
2021/03/29 07:11:42;;;;;;;61.15;5.35;;;7.90;1.00;;;;;;5091469;28;20592;-65
2021/03/29 07:14:08;;;;;;;61.83;6.30;;;7.90;1.00;;;;;;5091911;28;20216;-65
2021/03/29 07:16:35;;;;;;;60.40;6.00;;;8.00;1.00;;;;;;5091536;28;20312;-65
2021/03/29 07:19:04;;;;;;;60.40;6.28;;;8.10;1.00;;;;;;5091537;28;20953;-65
2021/03/29 07:21:30;;;;;;;60.97;5.80;;;8.20;1.00;;;;;;5091681;28;20693;-65
2021/03/29 07:24:01;;;;;;;63.58;5.55;;;8.30;1.00;;;;;;5091444;28;20475;-65
2021/03/29 07:26:34;;;;;;;62.60;6.37;;;8.50;1.00;;;;;;5091596;28;20205;-65
2021/03/29 07:29:21;;;;;;;59.47;6.10;;;8.60;1.00;;;;;;5091423;28;20481;-65
2021/03/29 07:31:50;;;;;;;62.63;6.83;;;8.90;1.00;;;;;;5091360;28;20465;-65
2021/03/29 07:34:18;;;;;;;60.67;6.50;;;9.20;1.00;;;;;;5091307;28;20459;-65
2021/03/29 07:36:47;;;;;;;61.40;6.80;;;9.40;1.00;;;;;;5082536;28;20851;-65
2021/03/29 07:39:21;;;;;;;65.43;6.17;;;9.60;1.00;;;;;;5088291;28;20504;-65
2021/03/29 07:41:47;;;;;;;63.00;5.63;;;9.90;1.00;;;;;;5091378;28;20821;-65
2021/03/29 07:44:17;;;;;;;61.77;4.77;;;10.10;1.00;;;;;;5091412;28;20477;-65
2021/03/29 07:46:47;;;;;;;63.20;6.37;;;10.30;1.00;;;;;;5091318;28;20930;-65
2021/03/29 07:49:46;;;;;;;64.53;6.70;;;10.50;1.00;;;;;;5091180;28;20469;-65
2021/03/29 07:52:26;;;;;;;60.70;5.93;;;10.70;1.00;;;;;;5094791;28;20503;-65
2021/03/29 07:54:54;;;;;;;60.10;5.20;;;10.90;1.00;;;;;;5095360;28;20537;-65
2021/03/29 07:57:53;;;;;;;60.93;5.50;;;11.20;1.00;;;;;;5095038;28;20576;-65
2021/03/29 08:00:56;;;;;;;60.40;5.47;;;11.40;1.00;;;;;;5095231;28;20450;-65
2021/03/29 08:03:46;;;;;;;61.23;5.50;;;11.70;1.00;;;;;;5095166;28;20481;-65
2021/03/29 08:06:44;;;;;;;58.43;5.03;;;11.90;1.00;;;;;;5095241;28;20962;-65
2021/03/29 08:09:13;;;;;;;61.77;5.53;;;12.00;1.00;;;;;;5032713;28;20588;-65
2021/03/29 08:11:56;;;;;;;61.00;5.97;;;12.20;1.00;;;;;;5082332;28;20545;-65
2021/03/29 08:14:33;;;;;;;60.73;6.10;;;12.30;1.00;;;;;;5082863;28;20454;-65
2021/03/29 08:17:35;;;;;;;58.30;4.67;;;12.50;1.00;;;;;;5095100;28;20564;-65
2021/03/29 08:20:11;;;;;;;61.50;4.70;;;12.60;1.00;;;;;;5094819;28;20453;-65
2021/03/29 08:22:39;;;;;;;58.97;4.60;;;12.70;1.00;;;;;;5094905;28;20533;-65
2021/03/29 08:25:07;;;;;;;59.90;3.87;;;12.70;1.00;;;;;;5094943;28;20498;-65
2021/03/29 08:27:34;;;;;;;58.93;4.27;;;12.80;1.00;;;;;;5094702;28;20807;-65
2021/03/29 08:30:12;;;;;;;59.47;4.37;;;12.80;1.00;;;;;;5094752;28;20450;-65
2021/03/29 08:32:40;;;;;;;62.43;4.83;;;12.90;1.00;;;;;;5094461;28;20452;-65
2021/03/29 08:35:08;;;;;;;59.37;4.43;;;12.90;1.00;;;;;;5094380;28;21057;-65
2021/03/29 08:37:38;;;;;;;58.57;3.83;;;13.00;1.00;;;;;;5094577;28;20572;-65
2021/03/29 08:40:11;;;;;;;59.10;4.43;;;13.10;1.00;;;;;;5094725;28;20450;-65
2021/03/29 08:42:39;;;;;;;58.80;4.00;;;13.10;1.00;;;;;;5094296;28;20981;-65
2021/03/29 08:45:08;;;;;;;58.70;4.17;;;13.10;1.00;;;;;;5094254;28;21009;-65
2021/03/29 08:47:37;;;;;;;57.27;4.00;;;13.20;1.00;;;;;;5094530;28;20542;-65
2021/03/29 08:50:07;;;;;;;61.00;5.17;;;13.30;1.00;;;;;;5094136;28;20447;-65
2021/03/29 08:52:44;;;;;;;59.80;4.37;;;13.50;1.00;;;;;;5094121;28;20969;-65
2021/03/29 08:55:16;;;;;;;59.23;5.00;;;13.70;1.00;;;;;;5094196;28;20532;-65
2021/03/29 08:57:42;;;;;;;59.30;4.70;;;14.00;1.00;;;;;;5093853;28;20486;-65
2021/03/29 09:00:12;;;;;;;61.90;5.00;;;14.40;1.00;;;;;;5094310;28;20540;-65
2021/03/29 09:02:38;;;;;;;58.20;4.17;;;14.70;1.00;;;;;;5093905;28;20442;-65
2021/03/29 09:05:07;;;;;;;59.80;4.13;;;15.00;1.00;;;;;;5094209;28;20530;-65
2021/03/29 09:07:37;;;;;;;59.50;4.00;;;15.20;1.00;;;;;;5094229;28;20462;-65
2021/03/29 09:10:15;;;;;;;60.43;4.30;;;15.40;1.00;;;;;;5094227;28;20458;-65
2021/03/29 09:12:42;;;;;;;58.20;4.10;;;15.80;1.00;;;;;;5094246;28;20877;-65
2021/03/29 09:15:13;;;;;;;58.00;4.27;;;16.20;1.00;;;;;;5093961;28;20483;-65
2021/03/29 09:17:40;;;;;;;59.07;4.27;;;16.50;1.00;;;;;;5093938;28;20569;-65
2021/03/29 09:20:18;;;;;;;60.37;4.93;;;16.70;1.00;;;;;;5094099;28;20452;-65
2021/03/29 09:22:46;;;;;;;57.53;3.80;;;16.90;1.00;;;;;;5088551;28;20478;-65
2021/03/29 09:25:21;;;;;;;59.33;3.83;;;17.00;1.00;;;;;;5086514;28;20556;-65
2021/03/29 09:27:49;;;;;;;60.93;4.67;;;17.10;1.00;;;;;;5086808;28;20475;-65
2021/03/29 09:30:16;;;;;;;60.00;3.97;;;17.00;1.00;;;;;;5086447;28;20825;-65
2021/03/29 09:32:45;;;;;;;59.03;4.43;;;16.90;1.00;;;;;;5086768;28;20540;-65
2021/03/29 09:35:12;;;;;;;59.80;3.80;;;16.90;1.00;;;;;;5093007;28;20479;-65
2021/03/29 09:37:47;;;;;;;61.67;4.57;;;17.00;1.00;;;;;;5088526;28;20512;-65
2021/03/29 09:40:18;;;;;;;63.03;3.90;;;17.00;1.00;;;;;;5062127;28;20822;-65
2021/03/29 09:42:46;;;;;;;58.50;3.67;;;17.00;1.00;;;;;;5063262;28;20449;-65
2021/03/29 09:45:15;;;;;;;58.97;3.60;;;17.10;1.00;;;;;;5082991;28;20461;-65
2021/03/29 09:47:42;;;;;;;58.83;3.30;;;17.30;1.00;;;;;;5087774;28;20556;-65
2021/03/29 09:50:10;;;;;;;63.13;3.90;;;17.50;1.00;;;;;;5082741;28;20453;-65
2021/03/29 09:52:40;;;;;;;58.87;3.50;;;17.70;1.00;;;;;;5085709;28;20462;-65
2021/03/29 09:55:09;;;;;;;59.23;3.50;;;17.90;1.00;;;;;;5087571;28;20458;-65
2021/03/29 09:57:43;;;;;;;61.20;3.50;;;18.20;1.00;;;;;;5089537;28;20499;-65
2021/03/29 10:00:18;;;;;;;60.10;3.63;;;18.40;1.00;;;;;;5085966;28;20450;-65
2021/03/29 10:02:46;;;;;;;61.63;4.47;;;18.90;1.00;;;;;;5093080;28;20816;-66
2021/03/29 10:05:15;;;;;;;58.30;3.50;;;20.20;1.00;;;;;;5093024;28;20482;-66
2021/03/29 10:07:52;;;;;;;58.30;4.00;;;21.60;1.00;;;;;;5092878;28;20807;-65
2021/03/29 10:10:26;;;;;;;59.57;3.43;;;23.10;1.00;;;;;;5092889;28;20442;-65
2021/03/29 10:13:06;;;;;;;59.43;3.60;;;24.20;1.00;;;;;;5091985;28;20452;-65
2021/03/29 10:15:33;;;;;;;59.97;3.43;;;25.40;1.00;;;;;;5091214;28;20532;-65
2021/03/29 10:18:11;;;;;;;59.60;4.17;;;26.40;1.00;;;;;;5084778;28;20487;-65
2021/03/29 10:20:40;;;;;;;60.57;3.43;;;26.70;1.00;;;;;;5082521;28;20468;-65
2021/03/29 10:23:27;;;;;;;58.20;3.40;;;27.10;1.00;;;;;;5080059;28;20871;-65
2021/03/29 10:26:19;;;;;;;63.60;3.40;;;27.70;1.00;;;;;;5085860;28;20458;-67
2021/03/29 10:28:54;;;;;;;60.20;3.40;;;28.20;1.00;;;;;;5083509;28;20510;-65
2021/03/29 10:31:21;;;;;;;58.63;3.83;;;28.50;1.00;;;;;;5090356;28;20454;-65
2021/03/29 10:33:47;;;;;;;61.17;3.70;;;28.60;1.00;;;;;;5085342;28;20620;-66
2021/03/29 10:36:14;;;;;;;58.57;3.90;;;28.80;1.00;;;;;;5087806;28;20529;-65
2021/03/29 10:38:42;;;;;;;58.77;4.13;;;29.20;1.00;;;;;;5088182;28;20488;-66
2021/03/29 10:41:09;;;;;;;58.57;3.20;;;29.50;1.00;;;;;;5092257;28;20759;-66
2021/03/29 10:43:35;;;;;;;57.57;3.27;;;30.20;1.00;;;;;;5084982;28;20596;-66
2021/03/29 10:46:03;;;;;;;59.17;3.57;;;30.90;1.00;;;;;;5084124;28;20529;-64
2021/03/29 10:48:29;;;;;;;59.40;3.37;;;31.40;1.00;;;;;;5084491;28;20475;-65
2021/03/29 10:50:56;;;;;;;58.37;3.60;;;31.80;1.00;;;;;;5090908;28;20500;-66
2021/03/29 10:53:22;;;;;;;62.30;4.00;;;31.80;1.00;;;;;;5083210;28;20463;-65
2021/03/29 10:55:48;;;;;;;60.50;4.00;;;32.00;1.00;;;;;;5089870;28;20442;-66
2021/03/29 10:58:14;;;;;;;57.10;3.47;;;32.40;1.00;;;;;;5084945;28;20565;-65
2021/03/29 11:00:41;;;;;;;61.50;3.97;;;32.80;1.00;;;;;;5091782;28;20469;-65
2021/03/29 11:03:08;;;;;;;60.20;3.80;;;33.20;1.00;;;;;;5092133;28;20813;-65
2021/03/29 11:05:35;;;;;;;59.53;3.90;;;33.50;1.00;;;;;;5091830;28;20486;-65
2021/03/29 11:08:01;;;;;;;61.87;4.40;;;33.70;1.00;;;;;;5091792;28;20466;-65
2021/03/29 11:10:28;;;;;;;61.10;3.60;;;33.50;1.00;;;;;;5091967;28;20446;-65
2021/03/29 11:12:55;;;;;;;58.90;3.97;;;32.90;1.00;;;;;;5091752;28;20459;-65
2021/03/29 11:15:21;;;;;;;59.20;3.60;;;32.80;1.00;;;;;;5091378;28;20477;-65
2021/03/29 11:17:47;;;;;;;61.13;4.10;;;32.70;1.00;;;;;;5091835;28;20484;-66
2021/03/29 11:20:15;;;;;;;58.50;3.70;;;32.60;1.00;;;;;;5091918;28;20518;-66
2021/03/29 11:22:43;;;;;;;59.20;3.40;;;32.70;1.00;;;;;;5091492;28;20450;-66
2021/03/29 11:25:11;;;;;;;59.87;4.07;;;33.30;1.00;;;;;;5092034;28;20446;-65
2021/03/29 11:27:37;;;;;;;57.40;3.57;;;33.80;1.00;;;;;;5091594;28;20553;-66
2021/03/29 11:30:07;;;;;;;58.43;3.50;;;33.90;1.00;;;;;;5091362;28;21011;-66
2021/03/29 11:32:34;;;;;;;57.67;3.50;;;34.10;1.00;;;;;;5091663;28;20450;-65
2021/03/29 11:35:00;;;;;;;56.80;3.33;;;34.40;1.00;;;;;;5089055;28;20560;-65
2021/03/29 11:37:27;;;;;;;58.53;3.47;;;34.40;1.00;;;;;;5088380;28;20547;-66
2021/03/29 11:39:53;;;;;;;57.80;3.30;;;33.60;1.00;;;;;;5086431;28;20453;-66
2021/03/29 11:42:20;;;;;;;57.47;3.50;;;33.10;1.00;;;;;;5086261;28;20463;-66
2021/03/29 11:44:46;;;;;;;59.10;3.40;;;33.00;1.00;;;;;;5091493;28;20550;-67
2021/03/29 11:47:12;;;;;;;59.87;3.50;;;32.80;1.00;;;;;;5091397;28;20532;-66
2021/03/29 11:49:39;;;;;;;58.70;3.47;;;32.30;1.00;;;;;;5091569;28;20453;-66
2021/03/29 11:52:06;;;;;;;59.23;4.10;;;32.30;1.00;;;;;;5091338;28;20473;-66
2021/03/29 11:54:33;;;;;;;58.70;3.60;;;32.80;1.00;;;;;;5091377;28;20514;-66
2021/03/29 11:57:00;;;;;;;60.90;4.17;;;33.50;1.00;;;;;;5091308;28;20485;-66
2021/03/29 11:59:27;;;;;;;59.20;3.70;;;34.20;1.00;;;;;;5091515;28;20690;-66
2021/03/29 12:01:56;;;;;;;57.17;3.33;;;34.80;1.00;;;;;;5091386;28;20454;-66
2021/03/29 12:04:27;;;;;;;57.93;3.47;;;35.50;1.00;;;;;;5091517;28;20455;-66
2021/03/29 12:06:56;;;;;;;59.90;3.30;;;36.40;1.00;;;;;;5091518;28;20449;-66
2021/03/29 12:09:28;;;;;;;57.90;3.17;;;36.20;1.00;;;;;;5091187;28;20467;-66
2021/03/29 12:12:00;;;;;;;58.30;3.30;;;36.50;1.00;;;;;;5091540;28;20531;-66
2021/03/29 12:14:28;;;;;;;59.47;4.00;;;37.00;1.00;;;;;;5091536;28;20489;-67
2021/03/29 12:16:55;;;;;;;58.80;3.33;;;37.40;1.00;;;;;;5091534;28;20529;-66
2021/03/29 12:19:22;;;;;;;57.80;4.37;;;37.30;1.00;;;;;;5091449;28;20470;-66
2021/03/29 12:21:50;;;;;;;59.00;3.77;;;37.70;1.00;;;;;;5091324;28;20442;-66
2021/03/29 12:24:20;;;;;;;57.67;3.30;;;38.10;1.00;;;;;;5091565;28;20449;-64
2021/03/29 12:26:47;;;;;;;65.50;4.17;;;38.70;1.00;;;;;;5091219;28;20533;-64
2021/03/29 12:29:19;;;;;;;58.87;4.20;;;38.80;1.00;;;;;;5091405;28;20505;-65
2021/03/29 12:31:46;;;;;;;57.77;3.60;;;39.10;1.00;;;;;;5091516;28;20457;-65
2021/03/29 12:34:13;;;;;;;58.90;4.03;;;39.10;1.00;;;;;;5090887;28;20506;-65
2021/03/29 12:36:45;;;;;;;58.70;4.23;;;39.10;1.00;;;;;;5091911;28;20482;-65
2021/03/29 12:39:17;;;;;;;57.00;3.80;;;39.50;1.00;;;;;;5095089;28;20493;-65
2021/03/29 12:41:45;;;;;;;57.10;3.93;;;39.70;1.00;;;;;;5086729;28;20870;-65
2021/03/29 12:44:15;;;;;;;57.60;3.50;;;39.90;1.00;;;;;;5087315;28;20870;-64
2021/03/29 12:46:46;;;;;;;57.57;3.40;;;39.70;1.00;;;;;;5091428;28;20454;-65
2021/03/29 12:49:14;;;;;;;61.30;4.00;;;39.70;1.00;;;;;;5091719;28;20909;-65
2021/03/29 12:51:40;;;;;;;58.57;3.57;;;40.30;1.00;;;;;;5086148;28;20454;-65
2021/03/29 12:54:09;;;;;;;58.67;3.40;;;40.70;1.00;;;;;;5088744;28;20474;-65
2021/03/29 12:56:36;;;;;;;56.97;3.30;;;40.90;1.00;;;;;;5081039;28;20458;-65
2021/03/29 12:59:04;;;;;;;57.77;3.53;;;41.20;1.00;;;;;;5089224;28;20502;-65
2021/03/29 13:01:31;;;;;;;58.77;3.63;;;41.50;1.00;;;;;;5088659;28;20958;-65
2021/03/29 13:04:01;;;;;;;58.17;3.53;;;41.70;1.00;;;;;;5094109;28;20580;-65